Terminal Aerodrome Forecast
Issued by NWS

Home | Current Version | Previous Version | Text Only | Print | Product List | Glossary On
Versions: 1 2 3 4 5 6 7 8 9 10 11 12 13 14 15 16 17
000
FTUS41 KGYX 312321
TAFHIE
TAF
KHIE 312321Z 0100/0124 31005KT P6SM SCT060
     FM010500 00000KT 3SM BR SKC
      TEMPO 0106/0110 2SM BR SCT002
     FM011800 30004KT P6SM SKC=

USA.gov is the U.S. government's official web portal to all federal, state and local government web resources and services.